createdAt,value
2018-08-20T00:00:23.019Z,81.10
2018-08-20T00:02:55.132Z,81.40
2018-08-20T00:05:25.324Z,81.40
2018-08-20T00:07:59.025Z,82.00
2018-08-20T00:10:30.174Z,81.70
2018-08-20T00:12:59.387Z,82.10
2018-08-20T00:15:28.478Z,82.00
2018-08-20T00:17:57.590Z,82.10
2018-08-20T00:20:26.672Z,81.80
2018-08-20T00:22:55.858Z,82.10
2018-08-20T00:25:24.894Z,82.10
2018-08-20T00:27:53.830Z,82.80
2018-08-20T00:30:23.559Z,81.80
2018-08-20T00:32:54.713Z,81.80
2018-08-20T00:35:23.882Z,82.00
2018-08-20T00:37:53.992Z,81.90
2018-08-20T00:40:23.119Z,82.10
2018-08-20T00:42:52.242Z,82.30
2018-08-20T00:45:21.716Z,82.70
2018-08-20T00:47:50.794Z,82.00
2018-08-20T00:50:20.180Z,83.30
2018-08-20T00:52:51.293Z,83.20
2018-08-20T00:55:20.553Z,83.10
2018-08-20T00:57:49.634Z,83.30
2018-08-20T01:00:18.829Z,83.00
2018-08-20T01:02:47.989Z,83.00
2018-08-20T01:05:17.096Z,83.00
2018-08-20T01:07:46.244Z,83.40
2018-08-20T01:10:15.370Z,83.10
2018-08-20T01:12:44.502Z,83.60
2018-08-20T01:15:14.808Z,83.40
2018-08-20T01:17:43.965Z,83.50
2018-08-20T01:20:13.054Z,83.70
2018-08-20T01:22:42.252Z,83.30
2018-08-20T01:25:11.321Z,83.90
2018-08-20T01:27:40.772Z,83.80
2018-08-20T01:30:09.832Z,83.70
2018-08-20T01:32:38.971Z,83.80
2018-08-20T01:40:45.055Z,84.10
2018-08-20T01:43:14.060Z,84.30
2018-08-20T01:45:43.347Z,84.30
2018-08-20T01:48:12.443Z,84.70
2018-08-20T01:50:41.533Z,85.20
2018-08-20T01:53:10.779Z,85.40
2018-08-20T01:55:39.931Z,85.90
2018-08-20T01:58:09.387Z,85.60
2018-08-20T02:00:39.526Z,85.80
2018-08-20T02:03:08.822Z,85.70
2018-08-20T02:05:37.980Z,85.60
2018-08-20T02:08:07.228Z,85.90
2018-08-20T02:10:36.149Z,85.80
2018-08-20T02:13:05.045Z,86.00
2018-08-20T02:15:34.109Z,85.80
2018-08-20T02:18:05.987Z,86.20
2018-08-20T02:20:35.629Z,86.40
2018-08-20T02:23:04.774Z,86.10
2018-08-20T02:25:33.958Z,86.60
2018-08-20T02:28:03.176Z,86.50
2018-08-20T02:30:32.298Z,87.10
2018-08-20T02:33:01.497Z,87.70
2018-08-20T02:35:30.622Z,87.40
2018-08-20T02:37:59.762Z,87.90
2018-08-20T02:40:29.195Z,87.80
2018-08-20T02:42:58.535Z,87.80
2018-08-20T02:45:27.683Z,87.90
2018-08-20T02:47:56.574Z,87.70
2018-08-20T02:50:25.441Z,88.00
2018-08-20T02:52:54.422Z,87.90
2018-08-20T02:55:23.328Z,88.00
2018-08-20T02:57:52.598Z,87.70
2018-08-20T03:00:21.862Z,88.20
2018-08-20T03:02:50.759Z,88.40
2018-08-20T03:05:19.707Z,88.60
2018-08-20T03:07:48.886Z,88.60
2018-08-20T03:10:18.137Z,88.40
2018-08-20T03:12:47.106Z,88.70
2018-08-20T03:15:15.947Z,88.80
2018-08-20T03:17:44.932Z,89.10
2018-08-20T03:20:13.873Z,88.80
2018-08-20T03:22:42.789Z,89.20
2018-08-20T03:25:11.852Z,89.40
2018-08-20T03:27:40.988Z,88.60
2018-08-20T03:30:10.716Z,89.00
2018-08-20T03:32:41.262Z,89.10
2018-08-20T03:35:12.049Z,89.10
2018-08-20T03:37:40.941Z,88.70
2018-08-20T03:40:11.765Z,88.10
2018-08-20T03:42:41.061Z,88.30
2018-08-20T03:45:10.710Z,88.60
2018-08-20T03:47:39.882Z,88.90
2018-08-20T03:50:11.093Z,88.70
2018-08-20T03:52:39.982Z,89.30
2018-08-20T03:55:08.962Z,88.80
2018-08-20T03:57:39.352Z,89.20
2018-08-20T04:00:09.772Z,89.10
2018-08-20T04:02:38.882Z,89.10
2018-08-20T04:05:07.883Z,89.40
2018-08-20T04:07:37.439Z,89.50
2018-08-20T04:10:06.589Z,89.10
2018-08-20T04:12:36.687Z,89.30
2018-08-20T04:15:05.832Z,89.60
2018-08-20T04:17:34.919Z,89.60
2018-08-20T04:20:04.261Z,89.50
2018-08-20T04:22:33.425Z,89.70
2018-08-20T04:25:02.541Z,89.40
2018-08-20T04:27:31.811Z,89.80
2018-08-20T04:30:01.606Z,89.90
2018-08-20T04:32:30.848Z,89.90
2018-08-20T04:35:00.462Z,90.00
2018-08-20T04:37:29.387Z,90.20
2018-08-20T04:39:58.311Z,90.10
2018-08-20T04:42:27.500Z,90.30
2018-08-20T04:44:56.917Z,90.40
2018-08-20T04:47:25.756Z,90.30
2018-08-20T04:49:54.853Z,90.60
2018-08-20T04:52:23.660Z,90.70
2018-08-20T04:54:52.512Z,90.80
2018-08-20T04:57:22.864Z,90.70
2018-08-20T04:59:52.142Z,90.80
2018-08-20T05:02:21.053Z,90.80
2018-08-20T05:04:49.941Z,90.90
2018-08-20T05:07:18.959Z,90.90
2018-08-20T05:09:47.764Z,90.90
2018-08-20T05:12:17.306Z,91.00
2018-08-20T05:14:46.847Z,91.10
2018-08-20T05:17:15.748Z,91.30
2018-08-20T05:19:44.674Z,91.70
2018-08-20T05:22:15.480Z,91.90
2018-08-20T05:24:44.449Z,92.40
2018-08-20T05:27:14.101Z,92.80
2018-08-20T05:29:43.453Z,93.50
2018-08-20T05:32:12.920Z,93.60
2018-08-20T05:34:41.912Z,93.90
2018-08-20T05:37:10.768Z,94.30
2018-08-20T05:39:39.666Z,93.90
2018-08-20T05:42:08.637Z,94.60
2018-08-20T05:44:37.627Z,94.70
2018-08-20T05:47:07.862Z,95.20
2018-08-20T05:49:38.048Z,95.20
2018-08-20T05:52:07.805Z,95.00
2018-08-20T05:54:36.693Z,95.40
2018-08-20T05:57:05.837Z,95.10
2018-08-20T05:59:34.720Z,94.90
2018-08-20T06:02:03.638Z,95.00
2018-08-20T06:04:32.669Z,95.10
2018-08-20T06:07:02.546Z,94.90
2018-08-20T06:09:32.355Z,95.20
2018-08-20T06:12:01.298Z,95.00
2018-08-20T06:14:30.196Z,95.30
2018-08-20T06:16:59.861Z,94.80
2018-08-20T06:19:28.770Z,95.00
2018-08-20T06:21:57.617Z,95.00
2018-08-20T06:24:26.505Z,94.90
2018-08-20T06:26:55.503Z,94.90
2018-08-20T06:29:25.730Z,94.80
2018-08-20T06:31:54.585Z,94.40
2018-08-20T06:34:23.687Z,94.60
2018-08-20T06:36:52.867Z,94.60
2018-08-20T06:39:21.752Z,94.50
2018-08-20T06:41:50.592Z,94.40
2018-08-20T06:44:19.469Z,94.40
2018-08-20T06:46:48.738Z,94.40
2018-08-20T06:49:17.863Z,94.40
2018-08-20T06:51:46.799Z,94.30
2018-08-20T06:54:15.749Z,94.40
2018-08-20T06:56:44.687Z,94.40
2018-08-20T06:59:14.090Z,94.50
2018-08-20T07:01:43.094Z,94.50
2018-08-20T07:04:12.161Z,94.50
2018-08-20T07:06:41.791Z,94.30
2018-08-20T07:09:11.646Z,94.50
2018-08-20T07:11:40.696Z,94.50
2018-08-20T07:14:09.573Z,94.40
2018-08-20T07:16:39.336Z,94.30
2018-08-20T07:19:08.274Z,94.50
2018-08-20T07:21:37.511Z,94.40
2018-08-20T07:24:09.580Z,94.50
2018-08-20T07:26:38.791Z,94.70
2018-08-20T07:29:07.737Z,94.20
2018-08-20T07:31:36.601Z,94.10
2018-08-20T07:34:06.364Z,94.00
2018-08-20T07:36:35.179Z,94.20
2018-08-20T07:39:04.470Z,94.40
2018-08-20T07:41:34.409Z,93.90
2018-08-20T07:44:04.359Z,93.90
2018-08-20T07:46:33.224Z,93.60
2018-08-20T07:49:07.363Z,93.60
2018-08-20T07:51:38.640Z,93.50
2018-08-20T07:54:07.600Z,93.30
2018-08-20T07:56:36.731Z,93.10
2018-08-20T07:59:05.701Z,93.40
2018-08-20T08:01:37.374Z,93.10
2018-08-20T08:04:06.652Z,93.20
2018-08-20T08:06:36.327Z,93.00
2018-08-20T08:09:08.405Z,92.90
2018-08-20T08:11:37.699Z,92.90
2018-08-20T08:14:07.315Z,93.00
2018-08-20T08:16:37.620Z,93.00
2018-08-20T08:19:07.633Z,92.80
2018-08-20T08:21:50.053Z,92.90
2018-08-20T08:24:19.251Z,92.70
2018-08-20T08:26:48.606Z,92.60
2018-08-20T08:29:19.836Z,92.50
2018-08-20T08:31:48.942Z,92.30
2018-08-20T08:34:19.671Z,92.20
2018-08-20T08:36:49.632Z,92.30
2018-08-20T08:39:20.129Z,92.10
2018-08-20T08:41:51.226Z,92.00
2018-08-20T08:44:21.336Z,92.00
2018-08-20T08:46:50.346Z,92.00
2018-08-20T08:49:20.100Z,91.70
2018-08-20T08:51:49.272Z,91.30
2018-08-20T08:54:18.258Z,91.10
2018-08-20T08:56:47.812Z,91.20
2018-08-20T08:59:16.750Z,91.60
2018-08-20T09:01:45.650Z,91.00
2018-08-20T09:04:14.519Z,90.60
2018-08-20T09:06:43.554Z,90.50
2018-08-20T09:09:12.810Z,90.40
2018-08-20T09:11:43.415Z,90.50
2018-08-20T09:14:14.316Z,90.50
2018-08-20T09:16:44.071Z,90.00
2018-08-20T09:19:14.011Z,89.90
2018-08-20T09:21:43.360Z,90.00
2018-08-20T09:24:12.343Z,90.00
2018-08-20T09:26:41.495Z,90.00
2018-08-20T09:29:11.381Z,89.80
2018-08-20T09:31:40.574Z,89.10
2018-08-20T09:34:09.728Z,88.30
2018-08-20T09:36:39.101Z,88.20
2018-08-20T09:39:08.951Z,89.40
2018-08-20T09:41:39.357Z,89.50
2018-08-20T09:44:08.293Z,87.90
2018-08-20T09:46:37.286Z,88.80
2018-08-20T09:49:06.542Z,87.60
2018-08-20T09:51:36.542Z,86.30
2018-08-20T09:54:08.674Z,85.30
2018-08-20T09:56:37.592Z,86.40
2018-08-20T09:59:06.672Z,85.50
2018-08-20T10:01:35.635Z,85.30
2018-08-20T10:04:04.570Z,85.50
2018-08-20T10:06:33.571Z,84.60
2018-08-20T10:09:04.667Z,84.00
2018-08-20T10:11:35.246Z,81.80
2018-08-20T10:14:04.309Z,81.10
2018-08-20T10:16:33.672Z,82.50
2018-08-20T10:19:04.578Z,80.40
2018-08-20T10:21:37.863Z,79.80
2018-08-20T10:24:07.655Z,79.40
2018-08-20T10:26:36.615Z,79.10
2018-08-20T10:29:05.904Z,79.80
2018-08-20T10:31:35.628Z,78.60
2018-08-20T10:34:05.201Z,78.40
2018-08-20T10:36:34.146Z,77.70
2018-08-20T10:39:03.505Z,75.80
2018-08-20T10:41:33.980Z,77.00
2018-08-20T10:44:04.400Z,75.90
2018-08-20T10:46:33.257Z,76.00
2018-08-20T10:49:02.592Z,74.50
2018-08-20T10:51:34.217Z,74.10
2018-08-20T10:54:03.311Z,74.20
2018-08-20T10:56:32.512Z,71.70
2018-08-20T10:59:01.523Z,72.10
2018-08-20T11:01:35.511Z,73.20
2018-08-20T11:04:05.896Z,73.90
2018-08-20T11:06:34.726Z,75.40
2018-08-20T11:09:03.992Z,74.40
2018-08-20T11:11:33.745Z,75.30
2018-08-20T11:14:02.836Z,75.80
2018-08-20T11:16:31.879Z,77.40
2018-08-20T11:19:00.764Z,78.10
2018-08-20T11:21:29.733Z,78.50
2018-08-20T11:23:58.624Z,79.30
2018-08-20T11:26:28.130Z,81.40
2018-08-20T11:28:57.039Z,84.40
2018-08-20T11:31:27.241Z,84.80
2018-08-20T11:33:56.768Z,85.60
2018-08-20T11:36:26.868Z,86.90
2018-08-20T11:38:55.774Z,88.40
2018-08-20T11:41:24.693Z,90.30
2018-08-20T11:43:54.267Z,91.00
2018-08-20T11:46:23.364Z,91.40
2018-08-20T11:48:52.383Z,91.70
2018-08-20T11:51:21.341Z,91.90
2018-08-20T11:53:54.429Z,92.50
2018-08-20T11:56:24.441Z,91.90
2018-08-20T11:58:54.091Z,91.00
2018-08-20T12:01:24.448Z,90.50
2018-08-20T12:03:55.852Z,90.70
2018-08-20T12:06:26.343Z,90.10
2018-08-20T12:08:58.620Z,90.40
2018-08-20T12:11:28.351Z,90.80
2018-08-20T12:13:57.385Z,90.60
2018-08-20T12:16:29.559Z,90.60
2018-08-20T12:18:59.501Z,87.30
2018-08-20T12:21:28.461Z,87.20
2018-08-20T12:23:59.097Z,86.10
2018-08-20T12:26:28.880Z,86.10
2018-08-20T12:28:57.926Z,83.30
2018-08-20T12:31:26.969Z,81.50
2018-08-20T12:33:58.745Z,81.70
2018-08-20T12:36:28.987Z,74.10
2018-08-20T12:39:00.284Z,76.70
2018-08-20T12:41:30.727Z,76.40
2018-08-20T12:44:03.095Z,75.70
2018-08-20T12:46:32.428Z,77.80
2018-08-20T12:49:08.335Z,78.10
2018-08-20T12:51:37.492Z,78.10
2018-08-20T12:54:06.671Z,74.80
2018-08-20T12:56:37.085Z,76.00
2018-08-20T12:59:06.841Z,74.20
2018-08-20T13:01:38.728Z,74.50
2018-08-20T13:04:10.717Z,75.90
2018-08-20T13:06:39.682Z,74.50
2018-08-20T13:09:10.671Z,74.20
2018-08-20T13:11:40.630Z,74.60
2018-08-20T13:14:13.917Z,73.40
2018-08-20T13:16:43.270Z,73.70
2018-08-20T13:19:12.804Z,74.40
2018-08-20T13:21:42.945Z,74.70
2018-08-20T13:24:14.927Z,74.70
2018-08-20T13:26:45.772Z,73.00
2018-08-20T13:29:15.520Z,73.10
2018-08-20T13:31:44.563Z,72.10
2018-08-20T13:34:16.564Z,72.30
2018-08-20T13:36:45.692Z,71.50
2018-08-20T13:39:14.601Z,72.00
2018-08-20T13:41:44.627Z,72.80
2018-08-20T13:44:14.466Z,71.00
2018-08-20T13:46:43.727Z,71.50
2018-08-20T13:49:12.733Z,71.00
2018-08-20T13:51:41.653Z,70.90
2018-08-20T13:54:14.095Z,69.80
2018-08-20T13:56:44.517Z,70.30
2018-08-20T13:59:13.696Z,69.20
2018-08-20T14:01:43.434Z,70.10
2018-08-20T14:04:13.711Z,70.20
2018-08-20T14:06:42.704Z,70.60
2018-08-20T14:09:12.126Z,70.30
2018-08-20T14:11:42.976Z,70.60
2018-08-20T14:14:13.725Z,70.80
2018-08-20T14:16:43.044Z,71.70
2018-08-20T14:19:17.565Z,70.80
2018-08-20T14:21:47.017Z,69.40
2018-08-20T14:24:16.171Z,68.90
2018-08-20T14:26:47.085Z,68.20
2018-08-20T14:29:16.846Z,67.60
2018-08-20T14:31:46.927Z,68.40
2018-08-20T14:34:16.838Z,68.60
2018-08-20T14:36:47.429Z,69.70
2018-08-20T14:39:17.428Z,67.40
2018-08-20T14:41:47.308Z,67.30
2018-08-20T14:44:16.173Z,66.90
2018-08-20T14:46:45.090Z,67.30
2018-08-20T14:49:14.933Z,66.50
2018-08-20T14:51:46.140Z,66.80
2018-08-20T14:54:16.654Z,65.90
2018-08-20T14:56:45.712Z,66.10
2018-08-20T14:59:14.843Z,64.90
2018-08-20T15:01:43.670Z,64.40
2018-08-20T15:04:12.594Z,64.70
2018-08-20T15:07:14.729Z,64.40
2018-08-20T15:09:43.718Z,65.20
2018-08-20T15:12:14.703Z,65.60
2018-08-20T15:14:43.730Z,65.90
2018-08-20T15:17:13.913Z,65.20
2018-08-20T15:19:43.335Z,65.30
2018-08-20T15:22:15.296Z,63.20
2018-08-20T15:24:47.307Z,63.50
2018-08-20T15:27:18.333Z,63.20
2018-08-20T15:29:47.587Z,64.10
2018-08-20T15:32:19.771Z,64.50
2018-08-20T15:34:49.917Z,65.00
2018-08-20T15:37:19.392Z,63.10
2018-08-20T15:39:49.237Z,62.70
2018-08-20T15:42:20.420Z,62.60
2018-08-20T15:44:53.748Z,61.50
2018-08-20T15:47:25.032Z,62.40
2018-08-20T15:49:54.575Z,62.50
2018-08-20T15:52:28.813Z,63.00
2018-08-20T15:54:59.253Z,62.30
2018-08-20T15:57:31.528Z,62.80
2018-08-20T16:00:05.698Z,62.70
2018-08-20T16:02:41.295Z,62.50
2018-08-20T16:05:11.762Z,63.40
2018-08-20T16:07:43.716Z,63.30
2018-08-20T16:10:14.706Z,62.90
2018-08-20T16:12:48.652Z,63.50
2018-08-20T16:15:18.206Z,63.30
2018-08-20T16:17:47.869Z,62.70
2018-08-20T16:20:22.533Z,63.10
2018-08-20T16:22:53.214Z,63.00
2018-08-20T16:25:23.521Z,63.20
2018-08-20T16:27:55.004Z,62.50
2018-08-20T16:30:24.106Z,63.50
2018-08-20T16:32:54.394Z,63.10
2018-08-20T16:35:23.441Z,62.50
2018-08-20T16:37:55.593Z,62.90
2018-08-20T16:40:29.049Z,62.70
2018-08-20T16:43:00.203Z,63.80
2018-08-20T16:45:39.314Z,63.30
2018-08-20T16:48:15.044Z,62.80
2018-08-20T16:50:47.270Z,63.00
2018-08-20T16:53:19.247Z,63.00
2018-08-20T16:55:56.765Z,62.80
2018-08-20T16:58:32.047Z,63.50
2018-08-20T17:01:04.742Z,63.10
2018-08-20T17:03:36.484Z,62.70
2018-08-20T17:06:09.881Z,62.90
2018-08-20T17:08:39.760Z,62.90
2018-08-20T17:11:09.022Z,63.00
2018-08-20T17:13:41.835Z,63.50
2018-08-20T17:16:16.127Z,63.80
2018-08-20T17:18:48.482Z,63.60
2018-08-20T18:35:37.377Z,73.50
2018-08-20T18:38:08.017Z,74.40
2018-08-20T18:40:38.762Z,73.70
2018-08-20T18:43:08.863Z,74.40
2018-08-20T18:45:38.419Z,74.20
2018-08-20T18:48:08.112Z,74.20
2018-08-20T18:50:37.622Z,74.20
2018-08-20T18:53:07.112Z,74.00
2018-08-20T18:55:37.730Z,75.80
2018-08-20T18:58:09.668Z,75.50
2018-08-20T19:00:39.924Z,75.80
2018-08-20T19:03:09.631Z,75.60
2018-08-20T19:05:44.155Z,75.20
2018-08-20T19:08:18.748Z,75.80
2018-08-20T19:10:49.662Z,76.20
2018-08-20T19:13:21.168Z,76.20
2018-08-20T19:15:51.935Z,76.40
2018-08-20T19:18:26.522Z,77.00
2018-08-20T19:20:58.337Z,76.60
2018-08-20T19:23:29.587Z,76.70
2018-08-20T19:26:00.882Z,76.80
2018-08-20T19:28:32.449Z,76.60
2018-08-20T19:31:02.853Z,76.60
2018-08-20T19:33:32.632Z,77.60
2018-08-20T19:36:08.553Z,77.30
2018-08-20T19:38:39.239Z,78.00
2018-08-20T19:41:12.848Z,77.30
2018-08-20T19:43:49.229Z,78.40
2018-08-20T19:46:32.093Z,78.60
2018-08-20T19:49:06.652Z,79.00
2018-08-20T19:53:46.597Z,79.20
2018-08-20T19:56:17.484Z,79.60
2018-08-20T19:58:49.932Z,80.10
2018-08-20T20:01:20.770Z,80.30
2018-08-20T20:03:50.903Z,81.30
2018-08-20T20:06:20.285Z,81.40
2018-08-20T20:08:49.858Z,81.00
2018-08-20T20:11:24.752Z,81.10
2018-08-20T20:13:56.557Z,81.80
2018-08-20T20:16:27.014Z,82.30
2018-08-20T20:18:56.868Z,82.80
2018-08-20T20:21:27.881Z,82.90
2018-08-20T20:23:57.639Z,83.00
2018-08-20T20:26:29.454Z,83.40
2018-08-20T20:29:03.756Z,83.20
2018-08-20T20:31:35.331Z,83.90
2018-08-20T20:34:08.430Z,84.00
2018-08-20T20:36:42.383Z,83.70
2018-08-20T20:39:13.079Z,84.70
2018-08-20T20:41:42.632Z,84.50
2018-08-20T20:44:13.674Z,84.80
2018-08-20T20:46:43.580Z,85.70
2018-08-20T20:49:13.423Z,86.20
2018-08-20T20:51:43.461Z,85.70
2018-08-20T20:54:13.912Z,86.20
2018-08-20T20:56:44.380Z,86.00
2018-08-20T20:59:16.341Z,86.20
2018-08-20T21:01:45.802Z,87.30
2018-08-20T21:04:15.084Z,86.70
2018-08-20T21:06:44.574Z,87.60
2018-08-20T21:09:14.317Z,88.10
2018-08-20T21:11:44.625Z,88.00
2018-08-20T21:17:10.153Z,87.90
2018-08-20T21:19:39.421Z,89.00
2018-08-20T21:22:09.962Z,88.90
2018-08-20T21:24:40.806Z,89.70
2018-08-20T21:27:18.158Z,90.30
2018-08-20T21:29:47.719Z,90.00
2018-08-20T21:32:19.372Z,90.00
2018-08-20T21:34:48.960Z,90.30
2018-08-20T21:37:20.025Z,90.10
2018-08-20T21:39:49.699Z,90.60
2018-08-20T21:42:29.984Z,90.80
2018-08-20T21:44:59.702Z,91.30
2018-08-20T21:47:30.772Z,91.50
2018-08-20T21:50:02.298Z,91.50
2018-08-20T21:52:32.682Z,91.70
2018-08-20T21:55:02.226Z,91.80
2018-08-20T21:57:31.888Z,91.80
2018-08-20T22:00:11.538Z,91.90
2018-08-20T22:02:44.681Z,91.50
2018-08-20T22:05:17.646Z,91.70
2018-08-20T22:07:49.078Z,92.10
2018-08-20T22:10:18.797Z,92.00
2018-08-20T22:12:47.887Z,92.10
2018-08-20T22:15:17.158Z,92.00
2018-08-20T22:17:46.507Z,92.20
2018-08-20T22:20:17.160Z,92.40
2018-08-20T22:22:47.470Z,92.90
2018-08-20T22:25:17.411Z,92.50
2018-08-20T22:27:51.776Z,92.70
2018-08-20T22:30:21.322Z,92.60
2018-08-20T22:32:51.992Z,92.50
2018-08-20T22:35:24.758Z,92.80
2018-08-20T22:37:55.095Z,93.20
2018-08-20T22:40:24.602Z,92.90
2018-08-20T22:42:59.746Z,93.00
2018-08-20T22:45:28.996Z,92.90
2018-08-20T22:47:58.088Z,93.30
2018-08-20T22:50:27.411Z,93.20
2018-08-20T22:52:58.164Z,93.60
2018-08-20T22:55:27.314Z,93.30
2018-08-20T22:58:10.224Z,93.40
2018-08-20T23:00:39.702Z,93.80
2018-08-20T23:03:09.230Z,93.70
2018-08-20T23:05:38.397Z,93.90
2018-08-20T23:08:20.721Z,93.90
2018-08-20T23:10:50.008Z,93.90
2018-08-20T23:13:20.884Z,93.90
2018-08-20T23:15:53.746Z,93.80
2018-08-20T23:18:23.282Z,94.00
2018-08-20T23:20:52.395Z,94.40
2018-08-20T23:23:29.116Z,94.60
2018-08-20T23:26:09.862Z,94.40
2018-08-20T23:28:42.473Z,94.20
2018-08-20T23:31:12.739Z,94.40
2018-08-20T23:33:41.929Z,94.60
2018-08-20T23:36:12.601Z,94.60
2018-08-20T23:38:42.021Z,94.10
2018-08-20T23:41:15.577Z,94.50
2018-08-20T23:43:49.656Z,94.00
2018-08-20T23:46:30.189Z,94.10
2018-08-20T23:48:59.500Z,94.20
2018-08-20T23:51:28.645Z,94.50
2018-08-20T23:54:00.231Z,94.80
2018-08-20T23:56:29.455Z,95.00
2018-08-20T23:58:58.930Z,94.70
